Latest Weather Observations for Leigh Creek

IDS60801

Issued at 10:35 am CDT Thursday 27 November 2014 (issued every 30 minutes, with the page automatically refreshed every 10 minutes)

About weather observations | Map of weather stations | Latest weather observations for SA | Other Formats
Station Details ID: 017110 Name: LEIGH CREEK AIRPORT Lat: -30.60 Lon: 138.42 Height: 258.8 m
Data from the previous 72 hours. | See also: Recent months at Leigh Creek
Date/Time
CDT
Temp
°C
App
Temp
°C
Dew
Point
Rel
Hum
%
Delta-T
°C
Wind Press
QNH
hPa
Press
MSL
hPa
Rain
since 9 am
mm
Dir
 
Spd
km/h
Gust
km/h
Spd
kts
Gust
kts
27/10:30am 27.3 20.0 2.4 20 12.3 E 30 39 16 21 1020.1 1019.0 0.0
27/10:00am 26.5 18.6 2.4 21 11.8 ESE 33 41 18 22 1020.1 1019.0 0.0
27/09:30am 25.3 17.7 2.7 23 11.1 ESE 32 41 17 22 1020.3 1019.2 0.0
27/09:00am 24.7 16.5 2.8 24 10.7 ESE 35 46 19 25 1020.3 1019.2 0.0
27/08:30am 23.6 15.3 2.4 25 10.2 ESE 35 46 19 25 1020.2 1019.1 0.0
27/08:00am 23.4 14.7 2.3 25 10.1 E 37 52 20 28 1019.9 1018.8 0.0
27/07:45am 23.1 16.1 2.0 25 10.1 ESE 28 48 15 26 1019.8 1018.7 0.0
27/07:30am 22.0 15.7 1.6 26 9.6 ESE 24 35 13 19 1019.8 1018.7 0.0
27/07:00am 21.2 15.6 1.5 27 9.2 ESE 20 26 11 14 1019.4 1018.3 0.0
27/06:30am 20.7 13.6 1.6 28 8.9 ESE 28 37 15 20 1019.1 1018.0 0.0
27/06:00am 20.4 12.9 1.3 28 8.8 ESE 30 37 16 20 1018.8 1017.7 0.0
27/05:30am 20.5 12.7 1.4 28 8.8 ESE 32 41 17 22 1018.7 1017.6 0.0
27/05:00am 20.6 13.9 1.5 28 8.9 ESE 26 32 14 17 1018.6 1017.4 0.0
27/04:30am 21.0 13.5 1.3 27 9.1 ESE 30 39 16 21 1018.5 1017.3 0.0
27/04:00am 21.4 14.0 1.6 27 9.3 ESE 30 41 16 22 1018.3 1017.1 0.0
27/03:30am 21.6 14.1 1.3 26 9.4 ESE 30 39 16 21 1018.3 1017.1 0.0
27/03:00am 21.2 15.8 1.0 26 9.3 E 19 22 10 12 1018.3 1017.1 0.0
27/02:30am 21.6 15.9 0.8 25 9.6 ESE 20 26 11 14 1018.2 1017.0 0.0
27/02:00am 20.8 17.5 0.1 25 9.3 E 7 13 4 7 1018.4 1017.2 0.0
27/01:30am 21.9 18.2 -0.1 23 10.0 SE 9 13 5 7 1018.5 1017.3 0.0
27/01:00am 21.4 17.2 -1.2 22 10.0 S 11 13 6 7 1019.0 1017.9 0.0
27/12:30am 22.5 18.3 -0.9 21 10.5 SE 11 15 6 8 1019.0 1017.9 0.0
27/12:00am 22.0 17.0 -1.3 21 10.3 ESE 15 17 8 9 1019.0 1017.9 0.0
 
Date/Time
CDT
Temp
°C
App
Temp
°C
Dew
Point
Rel
Hum
%
Delta-T
°C
Wind Press
QNH
hPa
Press
MSL
hPa
Rain
since 9 am
mm
Dir
 
Spd
km/h
Gust
km/h
Spd
kts
Gust
kts
26/11:30pm 21.7 18.2 -1.6 21 10.2 SE 7 11 4 6 1019.0 1017.9 0.0
26/11:00pm 22.2 17.8 -2.5 19 10.7 ESE 11 13 6 7 1018.7 1017.6 0.0
26/10:30pm 23.1 18.4 -1.8 19 11.0 ESE 13 15 7 8 1018.4 1017.2 0.0
26/10:00pm 24.8 19.8 -1.1 18 11.8 ESE 15 19 8 10 1018.2 1017.0 0.0
26/09:30pm 25.5 19.7 -1.3 17 12.2 ESE 19 24 10 13 1017.9 1016.7 0.0
26/09:00pm 26.1 20.1 -1.7 16 12.6 E 20 28 11 15 1017.7 1016.5 0.0
26/08:30pm 26.9 20.5 -1.9 15 13.1 E 22 28 12 15 1017.4 1016.2 0.0
26/08:00pm 27.8 21.0 -2.1 14 13.7 ESE 24 30 13 16 1017.3 1016.1 0.0
26/07:30pm 28.9 22.8 -2.3 13 14.3 ESE 20 26 11 14 1017.1 1015.9 0.0
26/07:00pm 30.2 25.4 -2.3 12 15.1 SE 13 20 7 11 1017.0 1015.8 0.0
26/06:30pm 30.6 25.3 -3.2 11 15.5 SE 15 24 8 13 1016.8 1015.6 0.0
26/06:00pm 30.9 25.3 -3.0 11 15.6 SSW 17 26 9 14 1016.7 1015.5 0.0
26/05:30pm 31.2 25.9 -4.0 10 16.0 SE 15 26 8 14 1016.3 1015.2 0.0
26/05:00pm 31.0 25.0 -2.9 11 15.7 SW 19 26 10 14 1016.3 1015.2 0.0
26/04:30pm 31.3 24.8 -2.6 11 15.8 S 22 35 12 19 1016.7 1015.5 0.0
26/04:00pm 30.5 25.0 -2.1 12 15.2 SSW 17 30 9 16 1016.9 1015.7 0.0
26/03:30pm 30.6 25.1 -2.0 12 15.3 S 17 30 9 16 1017.1 1015.9 0.0
26/03:00pm 30.9 25.7 -3.0 11 15.6 SSE 15 24 8 13 1017.4 1016.2 0.0
26/02:30pm 30.5 24.4 -2.1 12 15.2 WSW 20 28 11 15 1017.9 1016.7 0.0
26/02:00pm 29.7 24.5 -2.7 12 14.9 SSW 15 30 8 16 1018.5 1017.3 0.0
26/01:30pm 29.7 25.4 -1.6 13 14.6 SSW 11 26 6 14 1019.0 1017.9 0.0
26/01:00pm 28.5 22.4 -2.6 13 14.2 SW 20 33 11 18 1019.6 1018.5 0.0
26/12:30pm 28.6 24.1 -0.5 15 13.8 SSW 13 20 7 11 1019.8 1018.7 0.0
26/12:00pm 27.6 22.7 -0.5 16 13.2 E 15 28 8 15 1020.1 1019.0 0.0
26/11:30am 27.9 23.2 0.6 17 13.1 ESE 15 22 8 12 1020.3 1019.2 0.0
26/11:00am 26.5 22.5 0.3 18 12.4 SE 11 19 6 10 1020.8 1019.6 0.0
26/10:30am 25.9 21.9 0.5 19 12.0 SE 11 20 6 11 1020.9 1019.7 0.0
26/10:00am 24.9 19.6 1.7 22 11.1 ESE 19 26 10 14 1020.8 1019.6 0.0
26/09:30am 24.1 18.7 2.3 24 10.5 ESE 20 28 11 15 1020.8 1019.6 0.0
26/09:00am 23.1 17.6 2.0 25 10.0 E 20 28 11 15 1020.7 1019.5 0.0
26/08:30am 22.0 16.4 1.1 25 9.7 E 20 26 11 14 1020.3 1019.2 0.0
26/08:00am 21.7 16.0 0.8 25 9.6 E 20 28 11 15 1020.2 1019.1 0.0
26/07:30am 20.7 14.9 0.0 25 9.3 E 20 26 11 14 1019.7 1018.6 0.0
26/07:00am 19.0 15.7 0.1 28 8.4 ESE 7 11 4 6 1019.4 1018.3 0.0
26/06:30am 16.9 13.5 -0.3 31 7.4 SE 7 9 4 5 1019.0 1017.9 0.0
26/06:00am 15.6 12.8 -0.6 33 6.9 SE 4 7 2 4 1018.8 1017.7 0.0
26/05:30am 16.7 13.3 -0.5 31 7.4 SE 7 11 4 6 1018.5 1017.3 0.0
26/05:00am 16.6 13.1 -1.0 30 7.5 SE 7 11 4 6 1018.2 1017.0 0.0
26/04:30am 17.3 13.4 -1.4 28 7.9 SE 9 11 5 6 1018.1 1016.9 0.0
26/04:00am 18.0 13.7 -1.3 27 8.3 ESE 11 15 6 8 1018.0 1016.8 0.0
26/03:30am 17.1 13.4 -0.1 31 7.5 ESE 9 13 5 7 1018.1 1016.9 0.0
26/03:00am 16.7 13.4 4.4 44 5.9 S 11 13 6 7 1018.2 1017.0 0.0
26/02:30am 16.7 13.2 5.3 47 5.5 S 13 13 7 7 1018.6 1017.4 0.0
26/02:00am 17.3 14.1 4.9 44 6.0 S 11 13 6 7 1018.6 1017.4 0.0
26/01:30am 17.6 14.4 4.9 43 6.1 S 11 13 6 7 1018.7 1017.6 0.0
26/01:00am 18.4 14.9 5.6 43 6.3 S 13 17 7 9 1018.8 1017.7 0.0
26/12:30am 19.1 14.9 5.9 42 6.6 SSW 17 20 9 11 1018.8 1017.7 0.0
26/12:00am 19.7 15.3 4.6 37 7.4 SSW 17 20 9 11 1019.0 1017.9 0.0
 
Date/Time
CDT
Temp
°C
App
Temp
°C
Dew
Point
Rel
Hum
%
Delta-T
°C
Wind Press
QNH
hPa
Press
MSL
hPa
Rain
since 9 am
mm
Dir
 
Spd
km/h
Gust
km/h
Spd
kts
Gust
kts
25/11:30pm 20.6 16.1 2.4 30 8.6 SSW 15 19 8 10 1019.1 1018.0 0.0
25/11:00pm 21.5 15.8 -0.5 23 9.9 SSW 19 24 10 13 1019.0 1017.9 0.0
25/10:30pm 21.9 16.9 -4.2 17 10.9 ESE 13 15 7 8 1018.9 1017.8 0.0
25/10:00pm 23.3 18.3 -3.9 16 11.6 SE 13 17 7 9 1018.7 1017.6 0.0
25/09:30pm 24.1 18.7 -4.1 15 12.1 SE 15 24 8 13 1018.5 1017.3 0.0
25/09:00pm 24.8 18.5 -3.6 15 12.3 SE 20 28 11 15 1018.1 1016.9 0.0
25/08:30pm 25.4 19.1 -4.0 14 12.7 ESE 20 26 11 14 1017.8 1016.6 0.0
25/08:00pm 26.6 19.5 -4.0 13 13.4 ESE 24 32 13 17 1017.7 1016.5 0.0
25/07:30pm 28.5 22.8 -3.6 12 14.4 SSE 17 22 9 12 1017.1 1015.9 0.0
25/07:00pm 29.2 22.0 -5.5 10 15.1 S 24 33 13 18 1016.9 1015.7 0.0
25/06:30pm 29.4 22.2 -5.4 10 15.2 SSW 24 39 13 21 1016.7 1015.5 0.0
25/06:00pm 30.1 25.0 -4.8 10 15.5 SSW 13 20 7 11 1016.6 1015.4 0.0
25/05:30pm 29.6 25.1 -6.6 9 15.5 ESE 9 15 5 8 1016.6 1015.4 0.0
25/05:00pm 29.9 25.1 -6.4 9 15.7 S 11 19 6 10 1016.8 1015.6 0.0
25/04:30pm 29.5 25.5 -5.3 10 15.3 N 7 13 4 7 1017.0 1015.8 0.0
25/04:00pm 29.2 24.5 -5.5 10 15.1 ESE 11 19 6 10 1017.4 1016.2 0.0
25/03:30pm 28.9 23.7 -5.7 10 15.0 NNW 13 20 7 11 1017.8 1016.6 0.0
25/03:00pm 28.5 24.2 -4.8 11 14.6 E 9 17 5 9 1018.2 1017.0 0.0
25/02:30pm 27.4 22.5 -3.4 13 13.7 NE 13 20 7 11 1018.5 1017.3 0.0
25/02:00pm 27.8 24.1 -3.1 13 13.9 SW 7 17 4 9 1018.9 1017.8 0.0
25/01:30pm 26.6 22.1 -3.1 14 13.2 E 11 22 6 12 1019.2 1018.1 0.0
25/01:00pm 25.8 21.5 -1.9 16 12.5 ESE 11 24 6 13 1019.5 1018.4 0.0
25/12:30pm 25.5 21.4 -3.0 15 12.6 E 9 20 5 11 1019.9 1018.8 0.0
25/12:00pm 24.6 18.5 -2.0 17 11.9 NE 20 24 11 13 1020.1 1019.0 0.0
25/11:30am 24.4 18.7 -0.7 19 11.5 E 19 28 10 15 1020.2 1019.1 0.0
25/11:00am 22.8 17.3 0.6 23 10.3 E 19 28 10 15 1020.4 1019.3 0.0
25/10:30am 22.8 16.5 1.8 25 9.9 E 24 33 13 18 1020.3 1019.2 0.0
25/10:00am 21.6 16.1 3.8 31 8.7 E 22 32 12 17 1020.2 1019.1 0.0
25/09:30am 20.0 16.5 3.3 33 8.0 SSE 11 19 6 10 1020.3 1019.2 0.0
25/09:00am 19.3 14.7 3.5 35 7.5 SE 17 24 9 13 1020.0 1018.9 0.0
25/08:30am 18.5 15.1 3.9 38 7.0 SE 11 20 6 11 1019.9 1018.8 0.0
25/08:00am 17.2 13.3 3.5 40 6.4 SSE 13 20 7 11 1019.7 1018.6 0.0
25/07:30am 16.4 12.4 3.1 41 6.1 SSE 13 28 7 15 1019.5 1018.4 0.0
25/07:00am 15.4 11.8 2.9 43 5.7 SSE 11 20 6 11 1019.5 1018.4 0.0
25/06:30am 14.7 10.6 2.3 43 5.6 SSE 13 20 7 11 1019.1 1018.0 0.0
25/06:00am 14.3 9.8 2.2 44 5.4 S 15 20 8 11 1018.9 1017.8 0.0
25/05:30am 14.4 10.6 1.7 42 5.6 S 11 17 6 9 1018.7 1017.6 0.0
25/05:00am 14.9 11.4 1.4 40 6.0 S 9 15 5 8 1018.3 1017.1 0.0
25/04:30am 15.4 11.4 0.4 36 6.5 SSE 11 17 6 9 1018.2 1017.0 0.0
25/04:00am 16.0 11.4 -0.7 32 7.1 S 13 20 7 11 1018.0 1016.8 0.0
25/03:30am 16.3 11.5 -2.2 28 7.6 S 13 19 7 10 1018.0 1016.8 0.0
25/03:00am 16.6 12.4 -1.0 30 7.5 SE 11 17 6 9 1018.0 1016.8 0.0
25/02:30am 17.4 11.6 -0.3 30 7.7 SE 20 32 11 17 1018.1 1016.9 0.0
25/02:00am 17.7 13.1 3.9 40 6.6 S 17 24 9 13 1018.1 1016.9 0.0
25/01:30am 17.6 11.6 3.1 38 6.8 S 24 32 13 17 1018.0 1016.8 0.0
25/01:00am 18.6 13.3 5.1 41 6.6 S 22 28 12 15 1017.9 1016.7 0.0
25/12:30am 18.9 13.4 6.1 43 6.4 SSW 24 32 13 17 1017.9 1016.7 0.0
25/12:00am 19.7 14.0 6.8 43 6.6 SSW 26 41 14 22 1017.5 1016.3 0.0
 
Date/Time
CDT
Temp
°C
App
Temp
°C
Dew
Point
Rel
Hum
%
Delta-T
°C
Wind Press
QNH
hPa
Press
MSL
hPa
Rain
since 9 am
mm
Dir
 
Spd
km/h
Gust
km/h
Spd
kts
Gust
kts
24/11:30pm 20.2 14.4 7.9 45 6.4 SSW 28 35 15 19 1017.1 1015.9 0.0
24/11:00pm 20.8 14.7 8.4 45 6.6 SSW 30 39 16 21 1016.8 1015.6 0.0
24/10:30pm 21.7 15.5 9.3 45 6.7 S 32 41 17 22 1016.3 1015.2 0.0
24/10:00pm 22.6 16.2 9.4 43 7.2 S 33 43 18 23 1015.7 1014.6 0.0
24/09:30pm 23.6 18.2 9.6 41 7.7 S 28 39 15 21 1015.2 1014.0 0.0
24/09:00pm 25.0 18.7 8.9 36 8.8 S 32 43 17 23 1014.4 1013.2 0.0
24/08:30pm 25.9 19.5 9.3 35 9.2 S 33 44 18 24 1013.9 1012.7 0.0
24/08:00pm 26.8 20.7 8.3 31 10.1 S 30 41 16 22 1013.2 1012.0 0.0
24/07:30pm 27.4 20.4 8.3 30 10.5 S 35 44 19 24 1012.5 1011.3 0.0
24/07:00pm 27.9 20.7 7.7 28 11.0 S 35 46 19 25 1012.1 1011.0 0.0
24/06:30pm 27.8 20.8 8.6 30 10.6 S 35 48 19 26 1012.1 1011.0 0.0
24/06:00pm 27.2 20.7 9.1 32 10.1 SSW 33 46 18 25 1012.2 1011.1 0.0
24/05:30pm 28.8 21.1 8.5 28 11.3 SSW 39 56 21 30 1012.3 1011.2 0.0
24/05:29pm 29.1 21.1 7.6 26 11.8 SSW 39 57 21 31 1012.3 1011.2 0.0
24/05:00pm 30.6 22.9 7.1 23 12.9 SSW 37 50 20 27 1011.8 1010.6 0.0
24/04:30pm 30.6 23.8 7.1 23 12.9 SSW 32 46 17 25 1011.6 1010.4 0.0
24/04:06pm 30.0 22.2 8.4 26 12.0 SSW 39 57 21 31 1012.0 1010.9 0.0
24/04:00pm 29.6 22.3 8.6 27 11.7 SSW 37 50 20 27 1012.0 1010.9 0.0
24/03:30pm 31.0 23.1 9.3 26 12.3 SSW 41 57 22 31 1012.3 1011.2 0.0
24/03:00pm 30.7 22.7 10.6 29 11.6 SSW 43 57 23 31 1012.7 1011.5 0.0
24/02:30pm 31.4 25.4 12.2 30 11.4 SSW 35 48 19 26 1012.3 1011.2 0.0
24/02:00pm 31.2 25.9 12.5 31 11.2 WSW 32 44 17 24 1012.1 1011.0 0.0
24/01:30pm 32.7 28.1 13.4 31 11.8 SW 30 50 16 27 1012.0 1010.9 0.0
24/01:24pm 33.1 28.4 13.2 30 12.1 SSW 30 50 16 27 1011.8 1010.6 0.0
24/01:00pm 33.4 28.2 13.5 30 12.2 SSW 33 46 18 25 1011.8 1010.6 0.0
24/12:30pm 33.8 28.9 13.8 30 12.3 W 32 54 17 29 1011.8 1010.6 0.0
24/12:25pm 34.0 30.0 14.0 30 12.4 W 28 46 15 25 1011.7 1010.5 0.0
24/12:22pm 34.3 29.2 13.7 29 12.7 WNW 33 46 18 25 1011.8 1010.6 0.0
24/12:14pm 34.5 28.3 13.9 29 12.7 WSW 39 44 21 24 1011.5 1010.3 0.0
24/12:00pm 34.2 30.9 14.1 29 12.4 WNW 24 30 13 16 1011.7 1010.5 0.0
24/11:42am 34.2 29.6 14.7 31 12.2 WSW 32 50 17 27 1011.6 1010.4 0.0
24/11:30am 34.2 31.2 14.7 31 12.2 WNW 24 39 13 21 1011.8 1010.6 0.0
24/11:00am 32.3 30.1 14.9 35 10.8 NW 20 35 11 19 1011.9 1010.8 0.0

Other Formats:

Comma delimited format used in spreadsheet applications
http://www.bom.gov.au/fwo/IDS60801/IDS60801.94674.axf

JavaScript Object Notation format (JSON) in row-major order
http://www.bom.gov.au/fwo/IDS60801/IDS60801.94674.json